Portada
METAR-TAF:

METAR-TAF

Aeroports :

Curaçao, Antilles Neerlandeses

latitud: 12-12N, longitud: 068-58W, altitud: 9 m

Observació

L'informe es va fer fa 1 hora i 11 minuts, a les 07:00 UTC
Vent 9 kt del Est
Temperatura 28°C
Humitat 84%
Pressió 1010 hPa
Visibilitat 10 km o més

METAR: TNCC 210700Z AUTO 09009KT 9999 NCD 28/25 Q1010 NOSIG

Hora: 04:11 (08:11 UTC)

Pronòstic

L'informe es va fer fa 2 hores i 56 minuts, a les 05:15 UTC
Pronòstic vàlid del 21 a les 06 UTC al 22 a les 06 UTC
Vent 9 kt del Est
Visibilitat 10 km o més
Escasses núvols a una alçada de 2000 ft
Temporalment
l' 21 a les 08 UTC al 21 a les 16 UTC
Cel ennuvolat a una alçada de 1400 ft

TAF: TNCC 210515Z 2106/2206 09009KT 9999 FEW020 TEMPO 2108/2116 BKN014

Observacions i pronòstics meteorològics de més de 4000 aeroports (METAR i TAF).

Les estacions disponibles són els punts grocs i vermells al mapa.

Posi el ratolí al punt desitjat per veure el nom de l'estació.

Feu clic per veure les observacions i els pronòstics meteorològics.

Per canviar el mapa: feu clic els botons verds amb una creu de color negre per apropar; al botó verd amb un guió per allunyar la imatge; o en les fletxes verdes per a mapes adjacents.


METAR-TAF: